Time;durP1;ratioP1;P1;durP2;ratioP2;P2;SDS_P1;SDS_P2;PMS_P1;PMS_P2;Temp;Humidity;BMP_temperature;BMP_pressure;BME280_temperature;BME280_humidity;BME280_pressure;Samples;Min_cycle;Max_cycle;Signal;HPM_P1;HPM_P2
2022/03/11 00:02:24;;;;;;;0.55;0.50;;;5.90;58.10;;;;;;5113258;28;20039;-76
2022/03/11 00:04:50;;;;;;;1.00;0.65;;;5.80;58.10;;;;;;5113653;28;20050;-76
2022/03/11 00:07:17;;;;;;;1.25;0.70;;;5.80;58.20;;;;;;5095068;28;20050;-76
2022/03/11 00:09:42;;;;;;;0.90;0.70;;;5.70;58.30;;;;;;5113217;28;20489;-76
2022/03/11 00:12:09;;;;;;;2.53;0.70;;;5.70;58.90;;;;;;5113473;28;20050;-76
2022/03/11 00:14:35;;;;;;;0.90;0.57;;;5.60;58.30;;;;;;5095266;28;20035;-75
2022/03/11 00:17:02;;;;;;;1.38;0.80;;;5.60;58.40;;;;;;5094762;28;20082;-76
2022/03/11 00:19:28;;;;;;;0.73;0.60;;;5.60;58.40;;;;;;5078232;28;20047;-75
2022/03/11 00:21:55;;;;;;;1.23;0.60;;;5.60;58.40;;;;;;5113642;28;20032;-75
2022/03/11 00:24:21;;;;;;;1.25;0.70;;;5.50;58.40;;;;;;5113265;28;20647;-75
2022/03/11 00:26:47;;;;;;;0.68;0.50;;;5.40;58.40;;;;;;5094626;28;20439;-75
2022/03/11 00:29:13;;;;;;;1.95;0.60;;;5.40;58.50;;;;;;5077364;28;20043;-76
2022/03/11 00:31:38;;;;;;;1.33;0.63;;;5.30;58.60;;;;;;5112911;28;20481;-75
2022/03/11 00:34:05;;;;;;;1.42;0.75;;;5.30;58.60;;;;;;5094613;28;20447;-75
2022/03/11 00:36:30;;;;;;;0.98;0.60;;;5.30;58.70;;;;;;5099665;28;20438;-75
2022/03/11 00:38:56;;;;;;;1.27;0.80;;;5.20;58.70;;;;;;5115839;28;20040;-75
2022/03/11 00:41:22;;;;;;;1.23;0.70;;;5.20;58.90;;;;;;5094538;28;20042;-75
2022/03/11 00:43:47;;;;;;;0.43;0.38;;;5.10;59.00;;;;;;5112749;28;20043;-75
2022/03/11 00:46:13;;;;;;;1.00;0.65;;;5.10;58.90;;;;;;5094674;28;20070;-75
2022/03/11 00:48:39;;;;;;;1.00;0.63;;;5.10;59.00;;;;;;5094440;28;20039;-76
2022/03/11 00:51:04;;;;;;;1.55;0.68;;;5.00;59.00;;;;;;5112635;28;20059;-75
2022/03/11 00:53:30;;;;;;;1.23;0.50;;;4.90;59.00;;;;;;5112775;28;20069;-75
2022/03/11 00:55:56;;;;;;;1.02;0.70;;;5.00;59.10;;;;;;5077287;28;20032;-76
2022/03/11 00:58:21;;;;;;;1.40;0.57;;;4.90;59.10;;;;;;5112922;28;20039;-76
2022/03/11 01:00:47;;;;;;;1.15;0.60;;;4.90;59.10;;;;;;5112476;28;20085;-75
2022/03/11 01:03:13;;;;;;;1.50;0.90;;;4.80;59.10;;;;;;5095228;28;20062;-75
2022/03/11 01:05:39;;;;;;;1.45;0.70;;;4.80;59.20;;;;;;5097819;28;20165;-76
2022/03/11 01:08:05;;;;;;;1.13;0.60;;;4.80;59.20;;;;;;5116065;28;20126;-76
2022/03/11 01:10:31;;;;;;;1.38;0.80;;;4.80;59.20;;;;;;5081186;28;20114;-75
2022/03/11 01:12:57;;;;;;;1.08;0.63;;;4.80;59.20;;;;;;5097915;28;20374;-75
2022/03/11 01:15:23;;;;;;;2.17;0.98;;;4.80;59.20;;;;;;5098460;28;20055;-74
2022/03/11 01:17:48;;;;;;;1.40;0.70;;;4.80;59.30;;;;;;5097809;28;20088;-74
2022/03/11 01:20:14;;;;;;;1.38;0.85;;;4.70;59.30;;;;;;5097890;28;20545;-75
2022/03/11 01:22:40;;;;;;;1.05;0.60;;;4.70;59.90;;;;;;5116357;28;20496;-75
2022/03/11 01:25:07;;;;;;;1.10;0.65;;;4.70;59.40;;;;;;5097530;28;20063;-75
2022/03/11 01:27:33;;;;;;;2.45;1.00;;;4.70;59.50;;;;;;5097621;28;20489;-76
2022/03/11 01:29:59;;;;;;;1.13;0.70;;;4.60;59.50;;;;;;5097587;28;20047;-76
2022/03/11 01:32:25;;;;;;;0.82;0.70;;;4.60;59.50;;;;;;5115661;28;20050;-76
2022/03/11 01:34:51;;;;;;;1.25;0.70;;;4.50;59.50;;;;;;5097440;28;20040;-76
2022/03/11 01:37:16;;;;;;;1.83;0.75;;;4.60;59.60;;;;;;5097441;28;20043;-75
2022/03/11 01:39:42;;;;;;;2.00;1.10;;;4.50;59.60;;;;;;5097384;28;20078;-75
2022/03/11 01:42:09;;;;;;;1.88;1.00;;;4.60;59.70;;;;;;5115786;28;20104;-75
2022/03/11 01:44:35;;;;;;;2.03;0.80;;;4.50;59.60;;;;;;5097454;28;20039;-75
2022/03/11 01:47:01;;;;;;;1.33;0.75;;;4.50;59.70;;;;;;5115822;28;20063;-75
2022/03/11 01:49:27;;;;;;;1.33;0.90;;;4.50;59.70;;;;;;5115497;28;20047;-75
2022/03/11 01:51:53;;;;;;;1.42;0.75;;;4.40;59.70;;;;;;5115523;28;20047;-75
2022/03/11 01:54:19;;;;;;;1.63;0.95;;;4.40;59.70;;;;;;5097445;28;20031;-75
2022/03/11 01:56:45;;;;;;;1.55;0.95;;;4.50;59.80;;;;;;5097029;28;20038;-75
2022/03/11 01:59:11;;;;;;;1.42;0.90;;;4.40;59.80;;;;;;5097042;28;20061;-75
2022/03/11 02:01:37;;;;;;;1.33;0.88;;;4.40;59.80;;;;;;5115323;28;20042;-75
2022/03/11 02:04:03;;;;;;;1.25;0.70;;;4.40;59.90;;;;;;5115209;28;20119;-75
2022/03/11 02:06:29;;;;;;;1.27;0.65;;;4.40;59.90;;;;;;5097498;28;20130;-76
2022/03/11 02:08:56;;;;;;;1.23;0.80;;;4.30;59.90;;;;;;5096835;28;20052;-75
2022/03/11 02:11:21;;;;;;;0.82;0.60;;;4.30;60.00;;;;;;5080073;28;20481;-75
2022/03/11 02:13:49;;;;;;;1.13;0.75;;;4.40;60.00;;;;;;5114945;28;20044;-75
2022/03/11 02:16:18;;;;;;;1.17;0.80;;;4.30;60.60;;;;;;5096005;28;20075;-75
2022/03/11 02:18:44;;;;;;;1.77;0.98;;;4.30;60.10;;;;;;5115069;28;20044;-76
2022/03/11 02:21:14;;;;;;;2.35;1.00;;;4.30;60.10;;;;;;5063067;28;20070;-75
2022/03/11 02:23:46;;;;;;;2.72;1.30;;;4.30;60.10;;;;;;5114783;28;20035;-75
2022/03/11 02:26:13;;;;;;;2.05;0.93;;;4.30;60.10;;;;;;5095302;28;20031;-75
2022/03/11 02:28:39;;;;;;;1.30;0.80;;;4.30;60.10;;;;;;5114849;28;20039;-76
2022/03/11 02:31:05;;;;;;;1.20;0.75;;;4.30;60.10;;;;;;5115045;28;20063;-76
2022/03/11 02:33:31;;;;;;;1.88;1.00;;;4.30;60.00;;;;;;5096566;28;20040;-75
2022/03/11 02:35:56;;;;;;;2.20;0.95;;;4.30;60.10;;;;;;5114731;28;20400;-76
2022/03/11 02:38:22;;;;;;;1.60;0.95;;;4.20;60.00;;;;;;5114855;28;20393;-76
2022/03/11 02:40:48;;;;;;;2.70;1.10;;;4.20;60.00;;;;;;5096367;28;20451;-76
2022/03/11 02:43:14;;;;;;;1.33;0.85;;;4.20;60.10;;;;;;5079578;28;20050;-75
2022/03/11 02:45:39;;;;;;;2.90;1.20;;;4.20;60.20;;;;;;5115161;28;20089;-75
2022/03/11 02:48:07;;;;;;;1.80;1.00;;;4.20;60.20;;;;;;5096919;28;20047;-75
2022/03/11 02:50:33;;;;;;;1.60;0.80;;;4.10;60.20;;;;;;5114776;28;20043;-75
2022/03/11 02:52:58;;;;;;;0.80;0.60;;;4.10;60.30;;;;;;5079751;28;20043;-75
2022/03/11 02:55:24;;;;;;;1.05;0.80;;;4.10;60.40;;;;;;5097046;28;20138;-75
2022/03/11 02:57:50;;;;;;;1.55;0.80;;;4.00;60.40;;;;;;5096152;28;20461;-75
2022/03/11 03:00:16;;;;;;;2.15;0.90;;;4.10;60.50;;;;;;5114956;28;20036;-75
2022/03/11 03:02:42;;;;;;;2.38;1.13;;;4.10;60.60;;;;;;5079408;28;20035;-75
2022/03/11 03:05:08;;;;;;;1.80;0.80;;;4.10;60.60;;;;;;5114540;28;20393;-75
2022/03/11 03:07:35;;;;;;;0.93;0.82;;;4.10;61.40;;;;;;5114241;28;20050;-75
2022/03/11 03:10:01;;;;;;;1.75;1.02;;;4.00;60.70;;;;;;5114280;28;20445;-75
2022/03/11 03:12:27;;;;;;;2.25;0.90;;;4.00;60.80;;;;;;5079269;28;20083;-75
2022/03/11 03:14:53;;;;;;;1.42;0.82;;;3.90;60.80;;;;;;5095944;28;20077;-75
2022/03/11 03:17:21;;;;;;;2.13;1.00;;;4.00;60.90;;;;;;5114634;28;20048;-75
2022/03/11 03:19:47;;;;;;;1.95;0.90;;;3.80;60.90;;;;;;5096675;28;20085;-75
2022/03/11 03:22:13;;;;;;;1.77;0.90;;;3.90;61.10;;;;;;5114174;28;20039;-75
2022/03/11 03:24:39;;;;;;;3.00;0.90;;;3.90;61.10;;;;;;5096240;28;20032;-76
2022/03/11 03:27:05;;;;;;;1.52;0.90;;;3.80;61.10;;;;;;5113010;28;20500;-75
2022/03/11 03:29:30;;;;;;;1.33;0.70;;;3.80;61.20;;;;;;5114196;28;20061;-75
2022/03/11 03:31:58;;;;;;;0.90;0.65;;;3.80;61.20;;;;;;5114512;28;20036;-75
2022/03/11 03:34:33;;;;;;;1.45;0.80;;;3.80;61.30;;;;;;5079477;28;20112;-75
2022/03/11 03:37:02;;;;;;;1.63;0.73;;;3.70;61.40;;;;;;5114517;28;20073;-75
2022/03/11 03:39:28;;;;;;;1.80;0.95;;;3.70;61.40;;;;;;5114492;28;20047;-76
2022/03/11 03:41:55;;;;;;;1.20;0.77;;;3.70;61.50;;;;;;5114263;28;20043;-75
2022/03/11 03:44:22;;;;;;;1.35;0.90;;;3.70;61.50;;;;;;5113713;28;20035;-75
2022/03/11 03:46:48;;;;;;;0.52;0.50;;;3.70;61.60;;;;;;5095489;28;20078;-76
2022/03/11 03:49:14;;;;;;;1.00;0.73;;;3.70;61.60;;;;;;5078865;28;20397;-76
2022/03/11 03:51:40;;;;;;;1.95;1.10;;;3.70;61.60;;;;;;5113580;28;20497;-76
2022/03/11 03:54:09;;;;;;;1.98;1.05;;;3.70;61.60;;;;;;5113799;28;20051;-75
2022/03/11 03:56:36;;;;;;;1.23;0.88;;;3.70;61.60;;;;;;5078690;28;20054;-74
2022/03/11 03:59:05;;;;;;;1.70;0.95;;;3.70;61.60;;;;;;5113506;28;20036;-75
2022/03/11 04:01:33;;;;;;;1.48;0.77;;;3.70;61.60;;;;;;5096301;28;20070;-74
2022/03/11 04:03:59;;;;;;;2.13;1.10;;;3.60;61.60;;;;;;5113899;28;20419;-74
2022/03/11 04:06:25;;;;;;;1.38;0.80;;;3.70;61.70;;;;;;5095252;28;20032;-74
2022/03/11 04:08:50;;;;;;;2.17;1.20;;;3.70;61.70;;;;;;5095644;28;20516;-75
2022/03/11 04:11:16;;;;;;;1.52;1.00;;;3.70;61.70;;;;;;5113831;28;20086;-75
2022/03/11 04:13:43;;;;;;;1.90;0.98;;;3.70;61.70;;;;;;5097796;28;20447;-75
2022/03/11 04:16:08;;;;;;;1.80;0.95;;;3.70;61.70;;;;;;5120582;28;20094;-75
2022/03/11 04:18:34;;;;;;;1.50;1.00;;;3.70;61.70;;;;;;5119460;28;20040;-75
2022/03/11 04:21:00;;;;;;;1.67;0.90;;;3.70;61.70;;;;;;5098273;28;20484;-75
2022/03/11 04:23:26;;;;;;;1.23;0.80;;;3.70;61.80;;;;;;5085017;28;20085;-75
2022/03/11 04:25:52;;;;;;;1.70;0.85;;;3.70;61.80;;;;;;5121551;28;20459;-74
2022/03/11 04:28:17;;;;;;;1.40;0.82;;;3.70;61.80;;;;;;5068922;28;20040;-75
2022/03/11 04:30:43;;;;;;;1.75;0.80;;;3.60;61.80;;;;;;5068755;28;20047;-74
2022/03/11 04:33:09;;;;;;;0.95;0.60;;;3.70;61.90;;;;;;5101872;28;20051;-74
2022/03/11 04:35:35;;;;;;;1.40;0.75;;;3.60;61.90;;;;;;5102637;28;20046;-75
2022/03/11 04:38:00;;;;;;;1.85;0.95;;;3.60;61.90;;;;;;5102101;28;20443;-74
2022/03/11 04:40:26;;;;;;;2.13;1.00;;;3.60;62.00;;;;;;5102715;28;20032;-75
2022/03/11 04:42:52;;;;;;;1.48;0.80;;;3.60;62.00;;;;;;5102668;28;20067;-74
2022/03/11 04:45:18;;;;;;;1.17;0.80;;;3.50;62.00;;;;;;5117534;28;20481;-75
2022/03/11 04:47:44;;;;;;;1.23;0.75;;;3.60;62.20;;;;;;5077937;28;20142;-75
2022/03/11 04:50:10;;;;;;;0.75;0.68;;;3.60;62.90;;;;;;5113112;28;20039;-75
2022/03/11 04:52:36;;;;;;;1.70;0.90;;;3.60;62.30;;;;;;5077606;28;20370;-75
2022/03/11 04:55:03;;;;;;;2.25;0.80;;;3.50;62.30;;;;;;5094433;28;20088;-75
2022/03/11 04:57:28;;;;;;;1.23;0.90;;;3.50;62.40;;;;;;5112562;28;20036;-75
2022/03/11 04:59:54;;;;;;;1.52;0.82;;;3.40;62.40;;;;;;5112489;28;20047;-75
2022/03/11 05:02:27;;;;;;;0.85;0.70;;;3.50;62.50;;;;;;5094376;28;20039;-75
2022/03/11 05:04:54;;;;;;;1.52;0.90;;;3.40;62.50;;;;;;5094567;28;20488;-75
2022/03/11 05:07:20;;;;;;;1.33;0.70;;;3.40;62.50;;;;;;5112967;28;20044;-75
2022/03/11 05:09:46;;;;;;;1.52;0.90;;;3.40;62.60;;;;;;5094635;28;20388;-75
2022/03/11 05:12:12;;;;;;;1.33;0.70;;;3.40;62.60;;;;;;5094533;28;20075;-75
2022/03/11 05:14:38;;;;;;;1.92;1.00;;;3.40;62.70;;;;;;5113007;28;20074;-75
2022/03/11 05:17:04;;;;;;;1.15;0.70;;;3.30;62.80;;;;;;5113313;28;20063;-75
2022/03/11 05:19:30;;;;;;;1.27;0.60;;;3.40;62.80;;;;;;5112822;28;20101;-75
2022/03/11 05:21:56;;;;;;;2.58;1.00;;;3.30;62.80;;;;;;5112948;28;20035;-75
2022/03/11 05:24:22;;;;;;;1.63;0.77;;;3.30;62.80;;;;;;5061439;28;20210;-75
2022/03/11 05:26:48;;;;;;;2.10;0.90;;;3.30;62.90;;;;;;5094728;28;20060;-75
2022/03/11 05:29:15;;;;;;;1.88;0.90;;;3.30;62.90;;;;;;5077572;28;20514;-75
2022/03/11 05:31:41;;;;;;;1.15;0.77;;;3.40;62.90;;;;;;5094372;28;20471;-75
2022/03/11 05:34:07;;;;;;;2.33;1.02;;;3.30;62.90;;;;;;5077125;28;20042;-75
2022/03/11 05:36:33;;;;;;;1.23;0.77;;;3.40;63.00;;;;;;5094237;28;20067;-74
2022/03/11 05:38:59;;;;;;;1.00;0.52;;;3.30;62.90;;;;;;5077066;28;20078;-74
2022/03/11 05:41:25;;;;;;;1.10;0.60;;;3.30;63.00;;;;;;5112279;28;20040;-74
2022/03/11 05:43:51;;;;;;;2.03;0.80;;;3.30;63.00;;;;;;5112438;28;20429;-75
2022/03/11 05:46:16;;;;;;;1.00;0.65;;;3.30;63.10;;;;;;5094099;28;20043;-74
2022/03/11 05:48:42;;;;;;;1.55;0.90;;;3.30;63.10;;;;;;5094013;28;20046;-75
2022/03/11 05:51:08;;;;;;;0.88;0.60;;;3.20;63.10;;;;;;5115063;28;20036;-74
2022/03/11 05:53:34;;;;;;;1.52;0.90;;;3.30;63.20;;;;;;5097403;28;20058;-75
2022/03/11 05:56:00;;;;;;;1.83;0.90;;;3.30;63.30;;;;;;5097563;28;20497;-75
2022/03/11 05:58:26;;;;;;;1.75;0.77;;;3.20;63.20;;;;;;5097321;28;20050;-75
2022/03/11 06:00:51;;;;;;;1.48;0.73;;;3.20;63.20;;;;;;5097154;28;20044;-75
2022/03/11 06:03:17;;;;;;;0.88;0.57;;;3.30;63.30;;;;;;5115815;28;20047;-75
2022/03/11 06:05:43;;;;;;;1.38;0.68;;;3.30;63.30;;;;;;5096993;28;20134;-75
2022/03/11 06:08:09;;;;;;;1.42;0.80;;;3.30;63.40;;;;;;5115600;28;20042;-75
2022/03/11 06:10:35;;;;;;;1.65;0.80;;;3.30;63.40;;;;;;5115296;28;20131;-75
2022/03/11 06:13:00;;;;;;;1.35;0.73;;;3.30;63.40;;;;;;5080402;28;20481;-76
2022/03/11 06:15:26;;;;;;;1.38;0.80;;;3.30;63.50;;;;;;5116036;28;20389;-76
2022/03/11 06:17:52;;;;;;;2.65;1.02;;;3.30;63.50;;;;;;5097497;28;20092;-76
2022/03/11 06:20:18;;;;;;;1.30;1.00;;;3.30;63.40;;;;;;5097634;28;20403;-75
2022/03/11 06:22:48;;;;;;;1.27;0.73;;;3.30;63.40;;;;;;5097044;28;20106;-75
2022/03/11 06:25:14;;;;;;;2.35;0.85;;;3.40;63.40;;;;;;5115167;28;20032;-75
2022/03/11 06:27:40;;;;;;;1.80;0.90;;;3.40;63.40;;;;;;5115735;28;20047;-74
2022/03/11 06:30:06;;;;;;;1.15;0.80;;;3.40;63.30;;;;;;5079897;28;20089;-75
2022/03/11 06:32:32;;;;;;;1.85;1.00;;;3.40;63.30;;;;;;5114992;28;20487;-74
2022/03/11 06:34:58;;;;;;;1.88;0.95;;;3.40;63.30;;;;;;5114877;28;20084;-75
2022/03/11 06:37:24;;;;;;;1.23;0.90;;;3.50;63.30;;;;;;5079680;28;20180;-75
2022/03/11 06:39:49;;;;;;;2.22;0.88;;;3.50;63.90;;;;;;5096955;28;20134;-74
2022/03/11 06:42:15;;;;;;;1.55;0.93;;;3.60;63.30;;;;;;5096794;28;20445;-75
2022/03/11 06:44:40;;;;;;;1.70;0.93;;;3.70;63.20;;;;;;5096730;28;20147;-74
2022/03/11 06:47:07;;;;;;;1.33;0.80;;;3.70;63.20;;;;;;5115059;28;20092;-74
2022/03/11 06:49:32;;;;;;;2.17;1.00;;;3.70;63.10;;;;;;5099274;28;20043;-74
2022/03/11 06:51:58;;;;;;;1.45;0.70;;;3.80;63.00;;;;;;5098994;28;20084;-74
2022/03/11 06:54:23;;;;;;;2.20;1.00;;;3.90;63.00;;;;;;5115298;28;20043;-74
2022/03/11 06:56:49;;;;;;;3.33;1.05;;;3.90;62.90;;;;;;5079886;28;20134;-76
2022/03/11 06:59:15;;;;;;;2.38;1.20;;;4.00;62.80;;;;;;5114696;28;20043;-75
2022/03/11 07:01:44;;;;;;;1.83;1.02;;;4.10;62.70;;;;;;5096228;28;20096;-74
2022/03/11 07:04:09;;;;;;;1.73;0.98;;;4.10;62.50;;;;;;5079929;28;20031;-73
2022/03/11 07:06:35;;;;;;;2.60;1.13;;;4.20;62.40;;;;;;5096989;28;20044;-77
2022/03/11 07:09:03;;;;;;;1.10;0.80;;;4.30;62.40;;;;;;5079578;28;20367;-75
2022/03/11 07:11:32;;;;;;;2.15;1.05;;;4.40;62.30;;;;;;5114531;28;20045;-75
2022/03/11 07:13:59;;;;;;;3.45;1.40;;;4.50;62.20;;;;;;5114125;28;20043;-75
2022/03/11 07:16:24;;;;;;;2.08;1.20;;;4.60;62.20;;;;;;5096217;28;20036;-74
2022/03/11 07:18:50;;;;;;;2.60;1.15;;;4.70;62.10;;;;;;5095393;28;20404;-74
2022/03/11 07:21:16;;;;;;;2.88;1.30;;;4.70;61.90;;;;;;5113941;28;20446;-74
2022/03/11 07:23:42;;;;;;;2.83;1.33;;;4.80;61.90;;;;;;5078836;28;20036;-75
2022/03/11 07:26:08;;;;;;;2.25;0.90;;;4.80;61.80;;;;;;5114245;28;20063;-74
2022/03/11 07:28:33;;;;;;;1.42;1.02;;;5.00;61.70;;;;;;5113861;28;20036;-74
2022/03/11 07:31:00;;;;;;;2.47;1.00;;;5.10;61.70;;;;;;5113856;28;20092;-74
2022/03/11 07:33:26;;;;;;;2.20;1.17;;;5.10;61.50;;;;;;5079013;28;20039;-75
2022/03/11 07:35:51;;;;;;;3.17;1.38;;;5.30;61.50;;;;;;5114056;28;20542;-75
2022/03/11 07:38:17;;;;;;;2.13;1.23;;;5.30;61.30;;;;;;5095674;28;20051;-75
2022/03/11 07:40:43;;;;;;;2.03;1.00;;;5.40;61.20;;;;;;5095718;28;20393;-77
2022/03/11 07:43:09;;;;;;;2.38;1.20;;;5.60;61.20;;;;;;5114286;28;20098;-76
2022/03/11 07:45:35;;;;;;;2.47;1.23;;;5.60;61.00;;;;;;5096135;28;20035;-76
2022/03/11 07:48:01;;;;;;;2.55;1.17;;;5.70;60.80;;;;;;5095985;28;20169;-75
2022/03/11 07:50:27;;;;;;;2.03;1.25;;;5.80;60.70;;;;;;5096132;28;20115;-75
2022/03/11 07:52:53;;;;;;;2.88;1.50;;;5.80;60.50;;;;;;5114679;28;20040;-76
2022/03/11 07:55:21;;;;;;;1.88;1.10;;;6.10;60.60;;;;;;5095823;28;20050;-75
2022/03/11 07:57:47;;;;;;;2.33;1.02;;;6.20;61.10;;;;;;5078917;28;20564;-75
2022/03/11 08:00:14;;;;;;;2.38;1.30;;;6.30;60.40;;;;;;5095881;28;20078;-76
2022/03/11 08:02:44;;;;;;;2.38;1.10;;;6.40;60.20;;;;;;5113986;28;20032;-75
2022/03/11 08:05:14;;;;;;;1.95;1.23;;;6.50;60.10;;;;;;5114144;28;20177;-76
2022/03/11 08:07:45;;;;;;;2.75;1.45;;;6.70;60.00;;;;;;5114433;28;20065;-75
2022/03/11 08:10:11;;;;;;;2.33;1.10;;;6.80;59.90;;;;;;5095832;28;20439;-76
2022/03/11 08:12:36;;;;;;;3.20;1.30;;;6.90;59.80;;;;;;5095244;28;20043;-76
2022/03/11 08:15:03;;;;;;;2.85;1.40;;;7.10;59.70;;;;;;5095498;28;20044;-76
2022/03/11 08:17:29;;;;;;;2.08;1.13;;;7.20;59.60;;;;;;5095711;28;20047;-75
2022/03/11 08:19:55;;;;;;;2.58;1.23;;;7.30;59.50;;;;;;5078392;28;20040;-76
2022/03/11 08:22:20;;;;;;;2.70;1.42;;;7.40;59.40;;;;;;5078350;28;20055;-76
2022/03/11 08:24:46;;;;;;;3.15;1.42;;;7.50;59.40;;;;;;5095657;28;20031;-76
2022/03/11 08:27:12;;;;;;;3.85;1.50;;;7.60;59.30;;;;;;5095206;28;20040;-75
2022/03/11 08:29:38;;;;;;;3.05;1.55;;;7.70;59.30;;;;;;5095413;28;20039;-76
2022/03/11 08:32:04;;;;;;;2.78;1.52;;;7.80;59.20;;;;;;5114657;28;20032;-76
2022/03/11 08:34:30;;;;;;;3.03;1.42;;;7.90;59.20;;;;;;5095381;28;20045;-76
2022/03/11 08:36:56;;;;;;;2.20;1.40;;;8.00;59.20;;;;;;5095562;28;20039;-75
2022/03/11 08:39:36;;;;;;;3.05;1.52;;;8.10;59.20;;;;;;5113212;28;20556;-75
2022/03/11 08:42:20;;;;;;;3.25;1.52;;;8.10;59.10;;;;;;5033648;28;20422;-75
2022/03/11 08:44:46;;;;;;;3.15;1.70;;;8.20;59.10;;;;;;5013591;28;20042;-76
2022/03/11 08:47:12;;;;;;;2.55;1.40;;;8.30;59.00;;;;;;4997846;28;20060;-75
2022/03/11 08:49:40;;;;;;;3.30;1.73;;;8.30;58.90;;;;;;4981209;28;20560;-75
2022/03/11 08:52:06;;;;;;;2.78;1.50;;;8.40;59.00;;;;;;4997545;28;20560;-75
2022/03/11 08:54:37;;;;;;;2.85;1.58;;;8.40;58.90;;;;;;4997441;28;20597;-75
2022/03/11 08:57:03;;;;;;;3.78;1.83;;;8.40;58.90;;;;;;4981579;28;20068;-75
2022/03/11 08:59:29;;;;;;;3.35;1.52;;;8.50;59.00;;;;;;4997339;28;20562;-75
2022/03/11 09:01:55;;;;;;;2.90;1.58;;;8.70;59.00;;;;;;5030647;28;20132;-75
2022/03/11 09:04:21;;;;;;;5.50;1.80;;;8.70;58.90;;;;;;5030900;28;20046;-75
2022/03/11 09:06:47;;;;;;;3.25;1.50;;;8.80;58.80;;;;;;5030439;28;20530;-75
2022/03/11 09:09:14;;;;;;;2.30;1.50;;;9.00;58.80;;;;;;5030070;28;20049;-74
2022/03/11 09:11:39;;;;;;;3.00;1.58;;;8.90;58.70;;;;;;5013647;28;20087;-75
2022/03/11 09:14:07;;;;;;;3.08;1.70;;;9.00;58.70;;;;;;5067695;28;20044;-75
2022/03/11 09:16:33;;;;;;;3.42;1.70;;;9.00;58.60;;;;;;5110966;28;20040;-74
2022/03/11 09:19:01;;;;;;;3.40;1.90;;;9.10;58.60;;;;;;5077659;28;20032;-77
2022/03/11 09:21:26;;;;;;;2.92;1.50;;;9.00;58.50;;;;;;5077236;28;20131;-74
2022/03/11 09:23:52;;;;;;;3.33;1.73;;;9.20;58.50;;;;;;5094050;28;20071;-74
2022/03/11 09:26:18;;;;;;;4.05;2.00;;;9.30;58.50;;;;;;5097385;28;20127;-75
2022/03/11 09:28:43;;;;;;;2.90;1.65;;;9.30;58.40;;;;;;5097749;28;20043;-74
2022/03/11 09:31:10;;;;;;;3.38;1.58;;;9.30;58.40;;;;;;5116145;28;20131;-74
2022/03/11 09:33:37;;;;;;;3.25;1.60;;;9.40;58.40;;;;;;5097906;28;20044;-73
2022/03/11 09:36:04;;;;;;;2.97;1.52;;;9.40;58.30;;;;;;5080818;28;20048;-72
2022/03/11 09:38:30;;;;;;;3.90;1.90;;;9.50;58.30;;;;;;5097330;28;20397;-75
2022/03/11 09:40:57;;;;;;;3.40;1.70;;;9.60;58.30;;;;;;5080838;28;20042;-75
2022/03/11 09:43:25;;;;;;;3.88;2.00;;;9.70;58.20;;;;;;5097581;28;20034;-73
2022/03/11 09:45:51;;;;;;;3.47;2.00;;;9.70;58.20;;;;;;5115686;28;20069;-75
2022/03/11 09:48:17;;;;;;;3.15;1.70;;;9.70;58.00;;;;;;5080861;28;20039;-75
2022/03/11 09:50:44;;;;;;;3.05;1.92;;;9.80;58.00;;;;;;5080435;28;20478;-74
2022/03/11 09:53:11;;;;;;;2.97;1.60;;;9.80;58.00;;;;;;5115647;28;20126;-74
2022/03/11 09:55:37;;;;;;;3.35;1.80;;;9.90;58.00;;;;;;5116163;28;20043;-74
2022/03/11 09:58:06;;;;;;;2.90;1.73;;;9.90;57.90;;;;;;5115766;28;20496;-75
2022/03/11 10:00:31;;;;;;;3.55;1.90;;;10.00;57.90;;;;;;5097591;28;20043;-74
2022/03/11 10:02:57;;;;;;;2.88;1.80;;;10.00;57.90;;;;;;5097458;28;20039;-74
2022/03/11 10:05:23;;;;;;;3.60;1.90;;;10.10;57.80;;;;;;5097813;28;20040;-74
2022/03/11 10:08:05;;;;;;;3.90;2.13;;;10.20;57.80;;;;;;5097284;28;20054;-74
2022/03/11 10:10:30;;;;;;;3.00;1.70;;;10.20;57.60;;;;;;5115177;28;20392;-75
2022/03/11 10:12:57;;;;;;;4.90;2.42;;;10.20;57.60;;;;;;5098008;28;20039;-73
2022/03/11 10:15:29;;;;;;;4.55;2.42;;;10.30;57.60;;;;;;5115658;28;20480;-74
2022/03/11 10:17:55;;;;;;;4.55;2.22;;;10.30;57.50;;;;;;5097073;28;20050;-76
2022/03/11 10:20:21;;;;;;;3.03;1.50;;;10.40;57.40;;;;;;5097095;28;20038;-74
2022/03/11 10:22:50;;;;;;;3.20;2.00;;;10.40;57.40;;;;;;5115393;28;20036;-74
2022/03/11 10:25:28;;;;;;;3.00;1.90;;;10.50;57.40;;;;;;5115427;28;20051;-74
2022/03/11 10:28:01;;;;;;;4.13;2.13;;;10.50;57.30;;;;;;5064122;28;20035;-73
2022/03/11 10:30:32;;;;;;;3.90;2.03;;;10.60;57.20;;;;;;5098109;28;20035;-74
2022/03/11 10:33:00;;;;;;;4.00;2.10;;;10.60;57.10;;;;;;5114941;28;20031;-74
2022/03/11 10:35:36;;;;;;;3.22;1.80;;;10.70;57.10;;;;;;5079167;28;20043;-75
2022/03/11 10:38:07;;;;;;;5.05;2.00;;;10.70;57.00;;;;;;5096633;28;20512;-76
2022/03/11 10:44:59;;;;;;;3.10;1.70;;;10.90;56.90;;;;;;4992260;28;20128;-77
2022/03/11 10:47:33;;;;;;;2.85;1.60;;;11.00;56.80;;;;;;4992686;28;20432;-76
2022/03/11 10:50:30;;;;;;;4.55;2.00;;;11.00;56.60;;;;;;4992178;28;20112;-75
2022/03/11 10:53:05;;;;;;;2.70;1.38;;;11.20;56.60;;;;;;4992191;28;20042;-75
2022/03/11 10:55:31;;;;;;;4.07;1.88;;;11.20;56.50;;;;;;4953748;29;20039;-74
2022/03/11 10:58:00;;;;;;;3.47;1.77;;;11.30;56.50;;;;;;4953758;29;20430;-74
2022/03/11 11:00:29;;;;;;;3.38;1.90;;;11.40;56.30;;;;;;4954371;29;20062;-75
2022/03/11 11:02:58;;;;;;;4.30;2.45;;;11.50;56.20;;;;;;4938208;29;20043;-74
2022/03/11 11:05:26;;;;;;;4.50;2.30;;;11.60;56.00;;;;;;4953626;29;20047;-74
2022/03/11 11:07:52;;;;;;;4.65;2.40;;;11.60;56.00;;;;;;4938392;29;20489;-74
2022/03/11 11:10:20;;;;;;;4.88;2.00;;;11.80;56.30;;;;;;4954102;29;20039;-74
2022/03/11 11:12:47;;;;;;;3.95;2.22;;;11.80;55.90;;;;;;4953725;29;20114;-75
2022/03/11 11:15:15;;;;;;;4.53;2.47;;;11.90;55.80;;;;;;4953976;29;20243;-75
2022/03/11 11:17:43;;;;;;;3.85;2.25;;;11.90;55.70;;;;;;4937789;29;20079;-76
2022/03/11 11:20:20;;;;;;;4.65;2.45;;;12.10;55.60;;;;;;4940456;28;20049;-76
2022/03/11 11:22:48;;;;;;;4.80;2.65;;;12.10;55.50;;;;;;4998624;28;20049;-75
2022/03/11 11:25:21;;;;;;;4.53;2.72;;;12.10;55.40;;;;;;5015088;28;20037;-76
2022/03/11 11:27:47;;;;;;;4.93;2.90;;;12.20;55.20;;;;;;5037823;28;20116;-76
2022/03/11 11:30:25;;;;;;;5.43;2.95;;;12.20;55.10;;;;;;5038401;28;20072;-76
2022/03/11 11:32:55;;;;;;;5.10;2.97;;;12.30;55.10;;;;;;5038774;28;20044;-76
2022/03/11 11:35:41;;;;;;;5.03;2.83;;;12.30;55.00;;;;;;5055332;28;20066;-78
2022/03/11 11:38:30;;;;;;;5.35;3.05;;;12.40;54.90;;;;;;4975560;28;20038;-77
2022/03/11 11:41:24;;;;;;;3.55;2.20;;;12.50;54.80;;;;;;4975700;28;20156;-77
2022/03/11 11:43:59;;;;;;;3.45;2.00;;;12.50;54.80;;;;;;4962244;28;20042;-77
2022/03/11 11:46:30;;;;;;;4.25;2.22;;;12.60;54.80;;;;;;4976118;28;20056;-77
2022/03/11 11:49:00;;;;;;;3.45;1.90;;;12.70;54.80;;;;;;4959064;28;20080;-75
2022/03/11 11:51:55;;;;;;;4.13;2.30;;;12.70;54.70;;;;;;5004279;28;20447;-75
2022/03/11 11:54:33;;;;;;;3.85;2.20;;;12.80;54.70;;;;;;4999086;28;20124;-75
2022/03/11 11:57:02;;;;;;;4.07;2.20;;;12.90;54.60;;;;;;5011291;28;20096;-75
2022/03/11 11:59:32;;;;;;;4.18;1.95;;;12.90;54.50;;;;;;5011235;28;20631;-74
2022/03/11 12:02:23;;;;;;;3.38;1.80;;;13.00;54.50;;;;;;5038168;28;20036;-74
2022/03/11 12:04:49;;;;;;;3.60;1.90;;;13.10;54.50;;;;;;5111671;28;20160;-74
2022/03/11 12:07:17;;;;;;;2.25;1.52;;;13.20;54.40;;;;;;5113877;28;20055;-75
2022/03/11 12:09:54;;;;;;;2.90;1.73;;;13.20;54.40;;;;;;5096049;28;20122;-75
2022/03/11 12:13:00;;;;;;;3.47;2.05;;;13.30;54.40;;;;;;5113409;28;20047;-74
2022/03/11 12:15:26;;;;;;;3.17;1.90;;;13.40;54.20;;;;;;5070125;28;20043;-74
2022/03/11 12:17:58;;;;;;;4.40;1.88;;;13.60;54.30;;;;;;5113644;28;20040;-75
2022/03/11 12:20:33;;;;;;;3.30;1.70;;;13.60;54.10;;;;;;5079617;28;20069;-74
2022/03/11 12:23:11;;;;;;;3.60;2.00;;;13.70;54.00;;;;;;5096337;28;20043;-73
2022/03/11 12:25:49;;;;;;;3.08;1.88;;;13.90;53.90;;;;;;5113614;28;20043;-74
2022/03/11 12:28:33;;;;;;;3.55;1.95;;;13.90;53.70;;;;;;5113038;28;20079;-74
2022/03/11 12:31:09;;;;;;;2.97;1.88;;;14.10;53.70;;;;;;5094637;28;20043;-75
2022/03/11 12:33:51;;;;;;;3.20;1.80;;;14.10;53.50;;;;;;5095806;28;20032;-74
2022/03/11 12:36:23;;;;;;;2.60;1.73;;;14.20;53.50;;;;;;5094338;28;20578;-74
2022/03/11 12:38:50;;;;;;;2.75;1.67;;;14.20;53.40;;;;;;5077765;28;20074;-74
2022/03/11 12:41:22;;;;;;;2.45;1.45;;;14.30;53.40;;;;;;5094528;28;20051;-74
2022/03/11 12:43:48;;;;;;;3.45;2.00;;;14.40;53.30;;;;;;5095258;28;20044;-73
2022/03/11 12:46:14;;;;;;;3.90;2.05;;;14.50;53.30;;;;;;5077683;28;20481;-74
2022/03/11 12:48:42;;;;;;;3.25;2.03;;;14.60;53.20;;;;;;5077725;28;20057;-75
2022/03/11 12:51:18;;;;;;;2.85;1.77;;;14.40;53.20;;;;;;5077679;28;20071;-75
2022/03/11 12:53:47;;;;;;;2.75;1.77;;;14.70;53.30;;;;;;5113014;28;20088;-76
2022/03/11 12:56:13;;;;;;;3.40;1.98;;;14.70;53.10;;;;;;5078576;28;20054;-76
2022/03/11 12:58:40;;;;;;;3.20;1.83;;;14.70;53.00;;;;;;5077342;28;20048;-76
2022/03/11 13:01:10;;;;;;;3.83;2.10;;;14.70;53.10;;;;;;5060850;28;20086;-75
2022/03/11 13:03:39;;;;;;;3.58;2.20;;;14.80;53.10;;;;;;5112606;28;20043;-76